Time;durP1;ratioP1;P1;durP2;ratioP2;P2;SDS_P1;SDS_P2;PMS_P1;PMS_P2;Temp;Humidity;BMP_temperature;BMP_pressure;BME280_temperature;BME280_humidity;BME280_pressure;Samples;Min_cycle;Max_cycle;Signal;HPM_P1;HPM_P2
2022/04/28 00:01:28;;;;;;;;;32.33;29.67;;;;;30.55;20.43;101901.47;5097494;27;45520;-81
2022/04/28 00:03:54;;;;;;;;;37.67;33.00;;;;;30.56;20.84;101892.31;5097669;27;45362;-81
2022/04/28 00:06:19;;;;;;;;;33.67;31.67;;;;;30.43;21.25;101892.00;5097607;27;45440;-81
2022/04/28 00:08:44;;;;;;;;;36.67;33.00;;;;;30.43;20.66;101902.94;5096989;27;55364;-81
2022/04/28 00:11:11;;;;;;;;;31.67;30.00;;;;;30.42;20.83;101907.53;5097025;27;45466;-81
2022/04/28 00:13:37;;;;;;;;;32.67;30.67;;;;;30.18;20.79;101894.94;5097526;27;45504;-81
2022/04/28 00:16:03;;;;;;;;;30.00;27.33;;;;;30.07;21.46;101895.44;5097191;27;45412;-81
2022/04/28 00:18:28;;;;;;;;;36.67;30.33;;;;;30.08;20.98;101887.19;5097239;27;45530;-81
2022/04/28 00:20:54;;;;;;;;;32.00;31.00;;;;;30.05;21.06;101903.72;5097087;27;45418;-81
2022/04/28 00:23:19;;;;;;;;;34.33;31.00;;;;;29.85;21.30;101896.41;5096016;27;45339;-81
2022/04/28 00:25:44;;;;;;;;;33.33;32.33;;;;;30.00;21.23;101916.72;5096866;27;45434;-81
2022/04/28 00:28:10;;;;;;;;;29.33;26.33;;;;;29.88;20.84;101893.53;5096806;27;51087;-81
2022/04/28 00:30:35;;;;;;;;;35.00;31.00;;;;;29.73;21.74;101886.88;5095630;27;45788;-81
2022/04/28 00:33:01;;;;;;;;;33.33;31.00;;;;;29.74;21.20;101896.81;5097004;27;45713;-81
2022/04/28 00:35:26;;;;;;;;;34.00;31.67;;;;;29.83;21.58;101908.31;5097078;27;45496;-81
2022/04/28 00:37:52;;;;;;;;;36.33;32.33;;;;;29.66;21.45;101885.38;5096617;27;46265;-81
2022/04/28 00:40:17;;;;;;;;;31.00;28.33;;;;;29.70;21.23;101897.91;5096639;27;45366;-81
2022/04/28 00:42:43;;;;;;;;;33.67;30.67;;;;;29.61;21.54;101884.66;5096787;27;45443;-81
2022/04/28 00:45:08;;;;;;;;;33.33;29.67;;;;;29.48;21.37;101875.19;5096783;27;48479;-81
2022/04/28 00:53:04;;;;;;;;;30.67;29.33;;;;;29.52;21.67;101871.38;5096261;27;45394;-81
2022/04/28 00:55:30;;;;;;;;;36.33;32.67;;;;;29.65;21.52;101893.59;5096676;27;45304;-81
2022/04/28 00:57:56;;;;;;;;;27.67;23.00;;;;;29.50;21.18;101887.84;5095488;27;45552;-81
2022/04/28 01:00:22;;;;;;;;;42.33;32.33;;;;;29.56;21.47;101894.91;5096800;27;45449;-81
2022/04/28 01:02:47;;;;;;;;;37.67;32.33;;;;;29.34;21.49;101878.50;5095163;27;45322;-80
2022/04/28 01:05:12;;;;;;;;;30.67;26.00;;;;;29.37;21.35;101890.22;5096732;27;45251;-81
2022/04/28 01:07:38;;;;;;;;;31.00;26.00;;;;;29.34;21.31;101889.44;5096044;27;46318;-81
2022/04/28 01:10:04;;;;;;;;;38.00;31.00;;;;;29.38;21.31;101871.97;5096255;27;45461;-81
2022/04/28 01:12:29;;;;;;;;;33.00;32.00;;;;;29.52;21.10;101885.94;5096664;27;45511;-81
2022/04/28 01:14:55;;;;;;;;;34.67;32.00;;;;;29.48;21.48;101883.41;5096161;27;45528;-81
2022/04/28 01:17:21;;;;;;;;;33.00;32.00;;;;;29.47;21.29;101889.84;5096368;27;45429;-81
2022/04/28 01:19:46;;;;;;;;;34.67;31.67;;;;;29.45;21.39;101886.25;5096458;27;45471;-81
2022/04/28 01:22:12;;;;;;;;;33.33;31.33;;;;;29.38;21.28;101875.59;5096182;27;45480;-81
2022/04/28 01:24:37;;;;;;;;;32.00;30.67;;;;;29.42;21.14;101885.44;5095316;27;45462;-80
2022/04/28 01:27:05;;;;;;;;;33.33;31.67;;;;;29.51;21.17;101900.56;5095694;27;45331;-80
2022/04/28 01:29:34;;;;;;;;;36.67;31.67;;;;;29.48;21.38;101892.50;5094906;27;45433;-81
2022/04/28 01:32:00;;;;;;;;;35.67;30.67;;;;;29.52;21.48;101904.19;5096044;27;45443;-80
2022/04/28 01:34:25;;;;;;;;;35.33;31.00;;;;;29.49;21.32;101890.66;5094783;27;45665;-81
2022/04/28 01:36:50;;;;;;;;;36.67;33.00;;;;;29.55;21.38;101885.81;5093684;27;47120;-81
2022/04/28 01:39:16;;;;;;;;;38.00;33.00;;;;;29.50;21.34;101895.16;5094716;27;45440;-81
2022/04/28 01:41:42;;;;;;;;;34.67;31.33;;;;;29.42;21.63;101899.13;5094901;27;45402;-81
2022/04/28 01:44:08;;;;;;;;;31.00;28.67;;;;;29.37;21.41;101879.28;5096086;27;45620;-80
2022/04/28 01:46:33;;;;;;;;;36.67;32.00;;;;;29.30;21.30;101888.69;5096081;27;45795;-80
2022/04/28 01:48:59;;;;;;;;;34.67;32.67;;;;;29.08;21.57;101884.06;5094432;27;45686;-80
2022/04/28 01:56:52;;;;;;;;;30.00;28.00;;;;;28.95;21.33;101869.16;5095604;27;45638;-81
2022/04/28 01:59:17;;;;;;;;;21.00;19.00;;;;;29.02;21.59;101900.72;5094441;27;45525;-81
2022/04/28 02:01:43;;;;;;;;;35.00;32.00;;;;;28.67;21.51;101850.25;5095832;27;45417;-80
2022/04/28 02:04:08;;;;;;;;;33.67;31.67;;;;;29.12;21.36;101908.56;5095637;27;45490;-80
2022/04/28 02:06:33;;;;;;;;;32.33;28.67;;;;;29.03;21.43;101902.50;5095455;27;45562;-81
2022/04/28 02:08:59;;;;;;;;;38.67;32.33;;;;;28.93;21.50;101909.31;5096644;27;45558;-81
2022/04/28 02:11:25;;;;;;;;;33.00;32.00;;;;;28.83;21.23;101894.22;5099618;27;45288;-81
2022/04/28 02:13:50;;;;;;;;;34.67;32.00;;;;;28.80;21.91;101900.69;5099187;27;45424;-81
2022/04/28 02:16:15;;;;;;;;;36.00;29.33;;;;;28.81;21.70;101901.59;5099028;27;45473;-81
2022/04/28 02:18:41;;;;;;;;;33.67;30.00;;;;;28.83;21.55;101888.75;5098091;27;45787;-81
2022/04/28 02:21:06;;;;;;;;;32.00;30.00;;;;;28.85;21.80;101895.94;5099114;27;45494;-80
2022/04/28 02:23:32;;;;;;;;;34.00;32.67;;;;;28.86;22.04;101905.94;5099324;27;45463;-80
2022/04/28 02:25:57;;;;;;;;;32.00;27.33;;;;;28.83;21.80;101896.94;5099049;27;46489;-80
2022/04/28 02:28:23;;;;;;;;;34.33;32.00;;;;;28.88;21.69;101884.88;5099132;27;45275;-80
2022/04/28 02:30:48;;;;;;;;;35.00;30.67;;;;;28.88;21.62;101906.75;5099043;27;45431;-80
2022/04/28 02:33:14;;;;;;;;;37.00;32.00;;;;;28.91;21.56;101905.75;5098991;27;45569;-80
2022/04/28 02:35:40;;;;;;;;;37.33;32.67;;;;;28.87;21.70;101902.22;5097212;27;47908;-80
2022/04/28 02:38:06;;;;;;;;;32.33;29.67;;;;;28.84;22.05;101890.53;5098417;27;45489;-81
2022/04/28 02:40:32;;;;;;;;;31.67;27.67;;;;;28.85;21.60;101904.13;5097917;27;45446;-81
2022/04/28 02:42:58;;;;;;;;;32.00;30.00;;;;;28.81;21.35;101891.56;5098742;27;45311;-81
2022/04/28 02:45:23;;;;;;;;;35.33;33.00;;;;;28.78;21.79;101890.81;5098993;27;46272;-81
2022/04/28 02:47:48;;;;;;;;;30.67;28.00;;;;;28.80;21.88;101911.63;5097574;27;46041;-80
2022/04/28 02:50:14;;;;;;;;;30.67;29.33;;;;;28.59;21.68;101888.72;5098680;27;45255;-81
2022/04/28 02:52:40;;;;;;;;;32.33;31.67;;;;;28.63;21.86;101908.66;5098876;27;45456;-81
2022/04/28 02:55:07;;;;;;;;;28.00;26.67;;;;;28.67;21.85;101910.31;5098554;27;46510;-81
2022/04/28 02:57:32;;;;;;;;;33.67;30.67;;;;;28.66;22.17;101903.06;5098774;27;45503;-81
2022/04/28 02:59:58;;;;;;;;;28.67;27.33;;;;;28.74;21.67;101912.75;5097365;27;45493;-81
2022/04/28 03:02:23;;;;;;;;;38.00;31.33;;;;;28.72;21.79;101903.75;5098590;27;45528;-80
2022/04/28 03:04:49;;;;;;;;;33.00;26.33;;;;;28.72;21.99;101919.22;5098307;27;45584;-80
2022/04/28 03:12:42;;;;;;;;;28.67;27.33;;;;;28.52;21.98;101903.56;5098399;27;46061;-81
2022/04/28 03:15:08;;;;;;;;;30.00;28.00;;;;;28.57;22.12;101909.75;5097933;27;46410;-81
2022/04/28 03:17:33;;;;;;;;;33.00;31.00;;;;;28.64;21.70;101911.34;5096880;27;45867;-81
2022/04/28 03:19:59;;;;;;;;;32.00;28.00;;;;;28.53;22.24;101911.69;5097686;27;45429;-81
2022/04/28 03:22:24;;;;;;;;;32.00;29.33;;;;;28.55;22.10;101928.03;5097882;27;45555;-81
2022/04/28 03:24:50;;;;;;;;;39.33;32.00;;;;;28.52;22.02;101920.88;5096991;27;47219;-81
2022/04/28 03:27:15;;;;;;;;;38.67;33.67;;;;;28.41;22.19;101901.28;5098070;27;45451;-81
2022/04/28 03:29:40;;;;;;;;;30.33;29.00;;;;;28.48;22.40;101923.75;5098242;27;45462;-80
2022/04/28 03:32:08;;;;;;;;;33.00;31.67;;;;;28.52;22.04;101926.31;5098047;27;45397;-81
2022/04/28 03:34:34;;;;;;;;;31.00;29.67;;;;;28.47;22.06;101920.13;5097827;27;45406;-81
2022/04/28 03:36:59;;;;;;;;;39.00;33.00;;;;;28.44;22.00;101924.81;5096232;27;45839;-81
2022/04/28 03:39:25;;;;;;;;;35.00;33.00;;;;;28.23;22.16;101902.84;5098195;27;45236;-81
2022/04/28 03:41:50;;;;;;;;;35.33;32.33;;;;;28.37;22.11;101930.50;5096914;27;45544;-80
2022/04/28 03:44:15;;;;;;;;;32.67;32.67;;;;;28.24;22.16;101899.16;5097602;27;45429;-80
2022/04/28 03:46:41;;;;;;;;;34.33;30.33;;;;;28.38;22.24;101935.03;5097688;27;45270;-81
2022/04/28 03:49:06;;;;;;;;;39.33;34.33;;;;;28.26;22.33;101907.31;5097663;27;45232;-81
2022/04/28 03:51:32;;;;;;;;;34.67;29.33;;;;;28.32;22.11;101920.72;5097784;27;45244;-81
2022/04/28 03:54:00;;;;;;;;;38.00;32.33;;;;;28.24;22.13;101907.34;5097513;27;46220;-81
2022/04/28 03:56:32;;;;;;;;;37.33;31.67;;;;;28.29;22.41;101929.03;5097696;27;45554;-81
2022/04/28 03:58:58;;;;;;;;;32.00;27.33;;;;;28.18;22.13;101930.28;5097681;27;45378;-81
2022/04/28 04:01:24;;;;;;;;;36.33;31.33;;;;;28.13;22.19;101910.47;5095962;27;45457;-81
2022/04/28 04:03:49;;;;;;;;;44.00;35.00;;;;;28.10;22.28;101909.69;5095983;27;48116;-81
2022/04/28 04:06:15;;;;;;;;;30.00;29.67;;;;;28.08;22.55;101914.31;5097517;27;45449;-81
2022/04/28 04:08:40;;;;;;;;;40.00;29.33;;;;;28.04;22.38;101908.97;5097774;27;45431;-80
2022/04/28 04:11:05;;;;;;;;;36.67;31.67;;;;;28.09;22.40;101930.63;5097562;27;45471;-80
2022/04/28 04:13:31;;;;;;;;;34.00;32.67;;;;;28.11;22.38;101930.56;5097353;27;45466;-81
2022/04/28 04:15:56;;;;;;;;;37.33;35.00;;;;;28.00;22.47;101926.41;5096878;27;45353;-80
2022/04/28 04:18:22;;;;;;;;;41.33;35.00;;;;;28.10;22.48;101940.59;5097267;27;45498;-81
2022/04/28 04:20:47;;;;;;;;;32.00;29.33;;;;;28.11;22.59;101945.09;5095892;27;45411;-80
2022/04/28 04:23:12;;;;;;;;;41.67;34.00;;;;;28.17;22.50;101933.06;5096979;27;45418;-81
2022/04/28 04:25:38;;;;;;;;;32.00;29.00;;;;;28.18;22.15;101943.03;5097337;27;45429;-81
2022/04/28 04:28:04;;;;;;;;;39.33;33.33;;;;;28.20;22.25;101949.34;5097195;27;45390;-81
2022/04/28 04:33:13;;;;;;;;;33.00;30.33;;;;;28.15;22.76;101954.06;5095657;27;45851;-84
2022/04/28 04:35:38;;;;;;;;;41.00;35.67;;;;;28.06;22.58;101934.34;5078271;27;45359;-84
2022/04/28 04:38:04;;;;;;;;;36.33;32.67;;;;;28.10;22.40;101953.34;5077085;27;45376;-84
2022/04/28 04:40:29;;;;;;;;;35.33;33.33;;;;;28.05;22.49;101940.75;5075703;28;45319;-82
2022/04/28 04:42:54;;;;;;;;;34.67;31.33;;;;;28.08;22.34;101960.69;5056437;28;46163;-83
2022/04/28 04:45:20;;;;;;;;;40.67;34.67;;;;;28.07;22.85;101962.50;5054466;28;45918;-83
2022/04/28 04:47:45;;;;;;;;;36.00;31.00;;;;;27.96;22.47;101951.06;5056532;28;45227;-83
2022/04/28 04:50:10;;;;;;;;;37.00;33.00;;;;;27.88;22.89;101952.22;5065860;28;45419;-82
2022/04/28 04:52:36;;;;;;;;;38.33;35.33;;;;;28.04;22.66;101959.91;5076355;27;46322;-83
2022/04/28 04:55:02;;;;;;;;;33.67;29.67;;;;;28.16;22.58;101966.78;5091822;27;46145;-83
2022/04/28 04:57:28;;;;;;;;;38.00;33.33;;;;;28.23;22.73;101977.41;5076585;27;45496;-83
2022/04/28 04:59:54;;;;;;;;;37.00;34.67;;;;;28.23;22.37;101969.22;5076151;27;45449;-83
2022/04/28 05:02:19;;;;;;;;;33.67;33.00;;;;;28.18;22.46;101962.16;5076030;27;46454;-83
2022/04/28 05:04:45;;;;;;;;;40.00;34.00;;;;;28.32;22.28;101981.63;5076571;27;45372;-82
2022/04/28 05:07:10;;;;;;;;;37.00;34.00;;;;;27.95;22.32;101916.56;5059558;28;45419;-79
2022/04/28 05:09:37;;;;;;;;;36.00;34.00;;;;;28.34;22.25;101968.84;5053924;28;45780;-86
2022/04/28 05:12:05;;;;;;;;;36.33;32.33;;;;;28.16;22.26;101923.13;5055740;28;45442;-82
2022/04/28 05:14:31;;;;;;;;;41.67;34.00;;;;;28.40;22.37;101970.44;5053856;28;45844;-83
2022/04/28 05:16:57;;;;;;;;;35.00;31.33;;;;;28.26;22.39;101940.94;5054504;28;45431;-83
2022/04/28 05:19:23;;;;;;;;;36.33;32.67;;;;;28.50;22.32;101991.00;5054694;28;45533;-82
2022/04/28 05:21:49;;;;;;;;;39.33;34.00;;;;;28.13;22.14;101923.22;5052343;28;48074;-83
2022/04/28 05:24:15;;;;;;;;;42.00;37.00;;;;;28.36;22.50;101964.19;5053790;28;45922;-82
2022/04/28 05:26:40;;;;;;;;;38.33;34.00;;;;;27.97;22.62;101917.41;5056018;28;45402;-84
2022/04/28 05:29:05;;;;;;;;;41.33;34.00;;;;;28.42;22.35;101976.72;5059677;28;45607;-79
2022/04/28 05:31:31;;;;;;;;;36.67;33.00;;;;;28.29;22.34;101965.38;5070354;27;48233;-77
2022/04/28 05:33:56;;;;;;;;;41.33;35.00;;;;;28.41;22.36;101969.50;5073398;28;45501;-83
2022/04/28 05:36:24;;;;;;;;;45.33;38.00;;;;;28.44;22.26;101987.59;5062686;27;45524;-81
2022/04/28 05:38:49;;;;;;;;;40.33;36.33;;;;;28.53;22.39;102003.66;5069281;27;45371;-81
2022/04/28 05:41:14;;;;;;;;;48.00;37.33;;;;;28.37;22.70;101996.00;5063324;28;45591;-79
2022/04/28 05:46:25;;;;;;;;;43.33;36.33;;;;;28.52;22.41;101999.13;5063852;28;45552;-76
2022/04/28 05:48:51;;;;;;;;;45.67;37.67;;;;;28.57;22.26;101986.22;5055379;28;45398;-76
2022/04/28 05:51:18;;;;;;;;;45.33;34.67;;;;;28.72;22.29;102002.06;5054313;28;45466;-76
2022/04/28 05:53:43;;;;;;;;;44.00;38.00;;;;;28.81;22.00;102006.25;5054937;28;45361;-76
2022/04/28 05:56:10;;;;;;;;;49.00;38.00;;;;;28.84;21.88;102018.91;5053837;28;45372;-76
2022/04/28 05:58:35;;;;;;;;;41.33;36.00;;;;;28.66;22.18;102015.91;5053107;28;45532;-76
2022/04/28 06:01:01;;;;;;;;;44.33;38.00;;;;;28.66;22.33;102024.09;5052476;28;45469;-76
2022/04/28 06:03:26;;;;;;;;;43.33;38.33;;;;;28.63;22.24;102010.56;5053918;28;45363;-76
2022/04/28 06:05:52;;;;;;;;;39.33;34.67;;;;;28.83;22.15;102025.31;5054594;28;45383;-76
2022/04/28 06:08:18;;;;;;;;;47.33;36.33;;;;;28.69;22.13;102012.19;5053992;28;45391;-76
2022/04/28 06:10:43;;;;;;;;;47.67;38.67;;;;;28.74;22.41;102024.72;5054088;28;45399;-76
2022/04/28 06:13:09;;;;;;;;;44.67;35.67;;;;;28.88;22.05;102020.59;5056837;28;45487;-77
2022/04/28 06:15:34;;;;;;;;;39.67;35.67;;;;;28.90;22.10;102038.72;5061386;27;45452;-77
2022/04/28 06:18:00;;;;;;;;;44.67;38.33;;;;;28.82;22.19;102024.44;5073296;28;45600;-76
2022/04/28 06:20:25;;;;;;;;;39.00;34.00;;;;;28.95;22.06;102016.66;5074989;28;46343;-76
2022/04/28 06:22:51;;;;;;;;;40.00;35.00;;;;;29.12;22.25;102040.59;5065231;27;45418;-76
2022/04/28 06:25:16;;;;;;;;;48.67;37.67;;;;;29.29;22.12;102028.16;5055127;28;45469;-77
2022/04/28 06:27:41;;;;;;;;;44.33;38.33;;;;;29.20;22.00;102013.00;5063877;28;45427;-76
2022/04/28 06:30:07;;;;;;;;;48.33;40.33;;;;;28.97;21.89;101995.63;5054889;28;45525;-76
2022/04/28 06:32:33;;;;;;;;;44.00;37.00;;;;;29.25;22.10;102033.75;5054782;28;45428;-76
2022/04/28 06:34:58;;;;;;;;;48.00;36.00;;;;;29.30;22.04;102039.03;5054900;28;45503;-76
2022/04/28 06:37:24;;;;;;;;;46.67;36.33;;;;;29.33;21.91;102036.16;5052919;27;45428;-77
2022/04/28 06:39:50;;;;;;;;;50.00;39.67;;;;;29.35;22.00;102056.16;5069167;27;46142;-77
2022/04/28 06:42:15;;;;;;;;;48.33;38.00;;;;;29.25;22.51;102043.78;5071332;27;45488;-77
2022/04/28 06:44:41;;;;;;;;;47.00;38.00;;;;;29.30;22.00;102039.03;5066222;28;45363;-77
2022/04/28 06:47:06;;;;;;;;;40.67;34.00;;;;;29.47;21.68;102059.34;5072865;28;45425;-77
2022/04/28 06:49:33;;;;;;;;;46.33;38.00;;;;;29.34;21.77;102054.38;5066710;27;45475;-77
2022/04/28 06:51:59;;;;;;;;;48.00;38.33;;;;;29.41;21.52;102063.22;5055981;27;45409;-76
2022/04/28 06:54:24;;;;;;;;;41.00;37.00;;;;;29.47;22.09;102053.88;5065249;28;45377;-76
2022/04/28 06:56:50;;;;;;;;;44.67;39.00;;;;;29.46;21.63;102073.97;5071817;28;45381;-76
2022/04/28 06:59:15;;;;;;;;;47.33;38.00;;;;;29.53;21.85;102065.44;5092144;27;48379;-77
2022/04/28 07:01:40;;;;;;;;;41.33;35.33;;;;;29.66;21.44;102054.94;5064774;28;45412;-76
2022/04/28 07:04:06;;;;;;;;;45.67;35.67;;;;;29.64;21.63;102051.34;5072312;27;45363;-77
2022/04/28 07:06:31;;;;;;;;;46.33;39.00;;;;;29.66;21.78;102060.41;5075335;28;45395;-76
2022/04/28 07:08:56;;;;;;;;;45.67;36.67;;;;;29.71;21.69;102055.59;5073508;27;45472;-76
2022/04/28 07:11:24;;;;;;;;;47.33;39.00;;;;;29.90;21.71;102063.06;5067727;28;45466;-76
2022/04/28 07:13:49;;;;;;;;;39.67;35.00;;;;;30.01;21.59;102074.47;5063376;28;45551;-76
2022/04/28 07:16:14;;;;;;;;;42.00;36.00;;;;;29.94;21.46;102064.72;5069793;27;45459;-76
2022/04/28 07:18:40;;;;;;;;;49.33;36.67;;;;;29.92;21.35;102061.19;5068576;28;45402;-77
2022/04/28 07:21:05;;;;;;;;;44.67;38.00;;;;;30.10;21.43;102063.13;5062883;28;45469;-76
2022/04/28 07:23:31;;;;;;;;;36.33;34.00;;;;;30.16;21.67;102072.06;5069420;28;45349;-76
2022/04/28 07:25:56;;;;;;;;;41.00;35.67;;;;;30.13;21.80;102081.28;5066777;28;45497;-77
2022/04/28 07:28:22;;;;;;;;;42.67;36.67;;;;;30.13;21.20;102062.13;5066987;28;45567;-77
2022/04/28 07:30:48;;;;;;;;;41.00;36.33;;;;;30.26;21.27;102081.63;5066007;27;45375;-76
2022/04/28 07:33:13;;;;;;;;;38.67;35.33;;;;;30.34;21.26;102075.81;5075613;28;45673;-77
2022/04/28 07:35:38;;;;;;;;;48.00;37.33;;;;;30.12;21.75;102049.38;5059072;28;45359;-77
2022/04/28 07:38:05;;;;;;;;;44.33;36.67;;;;;30.46;21.30;102086.28;5062941;27;46361;-77
2022/04/28 07:40:30;;;;;;;;;42.67;36.33;;;;;30.37;21.70;102073.84;5068962;28;45492;-76
2022/04/28 07:42:56;;;;;;;;;44.00;37.67;;;;;30.57;21.39;102073.00;5065281;27;45430;-79
2022/04/28 07:45:22;;;;;;;;;37.33;34.00;;;;;30.76;21.24;102083.16;5059748;28;45523;-77
2022/04/28 07:47:49;;;;;;;;;41.67;35.67;;;;;30.74;21.13;102061.28;5067667;28;46222;-77
2022/04/28 07:50:15;;;;;;;;;38.00;34.00;;;;;30.72;20.38;102081.50;5062573;28;45894;-77
2022/04/28 07:52:40;;;;;;;;;39.00;33.33;;;;;30.69;21.36;102084.34;5056098;28;45436;-76
2022/04/28 07:55:06;;;;;;;;;37.67;34.00;;;;;30.79;21.12;102094.84;5056928;28;45510;-78
2022/04/28 07:57:32;;;;;;;;;41.00;34.00;;;;;30.88;20.72;102076.22;5056469;28;46232;-80
2022/04/28 07:59:57;;;;;;;;;35.00;33.00;;;;;31.12;21.14;102088.81;5075830;28;45429;-77
2022/04/28 08:02:23;;;;;;;;;38.33;34.33;;;;;31.07;21.11;102068.03;5065808;27;45593;-77
2022/04/28 08:04:48;;;;;;;;;40.00;35.00;;;;;31.19;20.89;102081.19;5071511;28;45608;-77
2022/04/28 08:07:14;;;;;;;;;35.33;33.00;;;;;31.39;20.77;102101.28;5073502;27;46136;-77
2022/04/28 08:09:39;;;;;;;;;35.67;32.33;;;;;31.36;20.69;102079.50;5066451;28;45523;-77
2022/04/28 08:12:06;;;;;;;;;38.00;32.33;;;;;31.54;20.54;102094.19;5068317;28;45534;-77
2022/04/28 08:14:32;;;;;;;;;33.00;31.33;;;;;31.54;20.49;102089.56;5058304;28;45497;-77
2022/04/28 08:16:58;;;;;;;;;35.33;31.33;;;;;31.57;20.29;102094.91;5065306;28;46495;-76
2022/04/28 08:19:23;;;;;;;;;36.00;31.67;;;;;31.47;20.03;102082.59;5061542;28;45463;-76
2022/04/28 08:21:49;;;;;;;;;37.33;33.00;;;;;31.39;20.16;102061.06;5070189;27;45325;-76
2022/04/28 08:24:16;;;;;;;;;28.00;28.00;;;;;31.85;20.60;102103.69;5066516;28;45374;-77
2022/04/28 08:26:41;;;;;;;;;33.00;31.00;;;;;31.89;20.40;102094.34;5066213;28;46351;-76
2022/04/28 08:29:07;;;;;;;;;37.33;32.00;;;;;31.97;20.26;102094.84;5068415;27;45478;-76
2022/04/28 08:31:32;;;;;;;;;35.00;30.33;;;;;32.02;20.18;102098.22;5064592;27;45623;-76
2022/04/28 08:33:58;;;;;;;;;31.67;28.33;;;;;32.09;19.88;102099.69;5063484;28;45441;-77
2022/04/28 08:36:24;;;;;;;;;28.67;27.67;;;;;32.19;20.36;102107.50;5069714;27;46338;-77
2022/04/28 08:38:50;;;;;;;;;31.33;29.33;;;;;32.19;19.93;102091.91;5065146;27;45422;-77
2022/04/28 08:41:24;;;;;;;;;28.67;28.00;;;;;32.18;20.16;102075.50;5062695;27;45513;-77
2022/04/28 08:43:50;;;;;;;;;31.67;29.33;;;;;32.30;19.96;102094.09;5063557;28;45397;-77
2022/04/28 08:48:59;;;;;;;;;29.67;27.33;;;;;32.57;19.42;102093.63;5067291;28;45932;-76
2022/04/28 08:51:25;;;;;;;;;32.67;28.33;;;;;32.57;19.60;102091.75;5062903;27;45346;-77
2022/04/28 08:53:51;;;;;;;;;36.33;31.00;;;;;32.73;20.00;102101.97;5061255;28;45426;-77
2022/04/28 08:56:18;;;;;;;;;32.33;29.33;;;;;32.79;19.50;102107.16;5061547;28;46216;-76
2022/04/28 08:58:44;;;;;;;;;31.67;30.67;;;;;32.74;19.36;102096.41;5064191;28;45417;-76
2022/04/28 09:01:10;;;;;;;;;33.33;32.33;;;;;32.75;19.72;102103.66;5068061;28;45414;-76
2022/04/28 09:03:36;;;;;;;;;34.00;32.00;;;;;32.85;19.54;102104.06;5067901;28;45477;-77
2022/04/28 09:06:17;;;;;;;;;27.33;25.33;;;;;33.00;19.61;102116.97;5068615;28;45752;-76
2022/04/28 09:08:43;;;;;;;;;27.33;27.33;;;;;33.08;19.56;102101.91;5064162;28;45319;-76
2022/04/28 09:11:20;;;;;;;;;15.00;14.67;;;;;33.18;19.04;102098.59;5059170;28;45518;-76
2022/04/28 09:14:10;;;;;;;;;27.00;25.00;;;;;33.23;19.10;102101.09;5058034;28;45628;-77
2022/04/28 09:16:40;;;;;;;;;28.67;26.33;;;;;33.29;18.80;102091.63;5071876;27;45464;-77
2022/04/28 09:19:05;;;;;;;;;25.67;24.67;;;;;33.34;18.58;102086.75;5062583;28;45417;-76
2022/04/28 09:21:35;;;;;;;;;27.33;25.33;;;;;33.21;18.76;102077.38;5064777;28;45731;-77
2022/04/28 09:24:02;;;;;;;;;30.67;26.33;;;;;33.19;19.00;102071.97;5058952;27;45453;-77
2022/04/28 09:26:28;;;;;;;;;21.67;21.67;;;;;33.41;18.93;102087.31;5062586;28;47606;-77
2022/04/28 09:28:54;;;;;;;;;23.67;23.33;;;;;33.43;18.68;102085.34;5068477;28;45513;-78
2022/04/28 09:31:21;;;;;;;;;22.33;22.33;;;;;33.47;18.99;102068.59;5057311;28;45449;-77
2022/04/28 09:33:49;;;;;;;;;23.00;22.00;;;;;33.59;19.34;102066.09;5063680;28;45616;-77
2022/04/28 09:36:16;;;;;;;;;25.67;23.00;;;;;33.65;18.95;102079.50;5060084;28;47061;-77
2022/04/28 09:38:41;;;;;;;;;24.33;24.33;;;;;33.76;18.62;102077.03;5066915;27;45349;-77
2022/04/28 09:43:55;;;;;;;;;27.00;24.67;;;;;33.77;18.51;102051.28;5066595;28;45376;-77
2022/04/28 09:46:23;;;;;;;;;20.00;20.00;;;;;34.02;18.12;102066.34;5060975;28;45719;-77
2022/04/28 09:48:51;;;;;;;;;23.67;23.33;;;;;34.17;18.37;102072.81;5072028;27;45335;-77
2022/04/28 09:51:23;;;;;;;;;19.67;19.00;;;;;34.32;18.80;102079.31;5066002;27;45399;-77
2022/04/28 09:53:51;;;;;;;;;23.00;21.00;;;;;34.34;18.58;102071.81;5065054;27;45410;-77
2022/04/28 09:56:20;;;;;;;;;21.67;19.67;;;;;34.16;18.20;102063.66;5058991;28;46341;-76
2022/04/28 09:58:46;;;;;;;;;23.00;20.33;;;;;34.27;18.04;102056.59;5065382;28;45373;-77
2022/04/28 10:01:11;;;;;;;;;20.00;18.33;;;;;34.27;17.89;102037.31;5068554;27;45618;-77
2022/04/28 10:03:40;;;;;;;;;17.00;16.33;;;;;34.17;17.42;102031.50;5066342;28;45421;-77
2022/04/28 10:06:06;;;;;;;;;18.33;17.33;;;;;34.41;18.01;102056.69;5067108;27;45567;-77
2022/04/28 10:08:33;;;;;;;;;18.00;18.00;;;;;34.42;17.23;102044.69;5061129;28;45327;-78
2022/04/28 10:11:01;;;;;;;;;17.33;15.00;;;;;34.56;17.39;102057.59;5070973;27;45414;-78
2022/04/28 10:13:28;;;;;;;;;17.33;16.33;;;;;34.56;17.53;102049.34;5058824;28;45612;-78
2022/04/28 10:16:02;;;;;;;;;16.00;16.00;;;;;34.47;17.42;102034.28;5054609;28;45408;-77
2022/04/28 10:18:41;;;;;;;;;17.67;15.00;;;;;34.63;17.24;102055.34;5062531;28;45375;-78
2022/04/28 10:21:10;;;;;;;;;14.33;13.33;;;;;34.66;17.11;102050.53;5074995;27;45331;-77
2022/04/28 10:32:23;;;;;;;;;13.67;12.67;;;;;34.61;16.38;102041.66;5078579;28;45463;-78
2022/04/28 10:35:02;;;;;;;;;11.00;10.00;;;;;34.60;16.08;102055.53;5066026;27;45490;-78
2022/04/28 10:37:32;;;;;;;;;11.00;10.00;;;;;34.63;16.05;102038.81;5065163;27;47344;-80
2022/04/28 10:39:58;;;;;;;;;11.67;11.67;;;;;34.80;15.97;102046.94;5068961;28;45635;-78
2022/04/28 10:42:26;;;;;;;;;13.00;13.00;;;;;34.93;16.07;102043.41;5059331;28;45897;-80
2022/04/28 10:44:54;;;;;;;;;8.33;8.33;;;;;34.95;15.68;102023.00;5061184;28;45442;-79
2022/04/28 10:47:35;;;;;;;;;12.00;11.00;;;;;35.15;16.14;102040.16;5065084;28;45435;-79
2022/04/28 10:50:01;;;;;;;;;13.33;11.00;;;;;35.25;15.82;102029.38;5067996;28;45614;-79
2022/04/28 10:52:27;;;;;;;;;13.33;11.33;;;;;35.15;15.20;102021.72;5068354;27;45666;-80
2022/04/28 10:54:54;;;;;;;;;14.00;11.33;;;;;34.98;15.52;101992.47;5065572;28;45741;-80
2022/04/28 10:57:29;;;;;;;;;12.00;12.00;;;;;35.25;15.91;102007.28;5063322;27;46063;-78
2022/04/28 10:59:55;;;;;;;;;12.00;11.33;;;;;35.48;15.60;102017.72;5058848;28;45449;-79
2022/04/28 11:02:21;;;;;;;;;11.00;11.00;;;;;35.61;15.67;102019.66;5065969;28;45851;-78
2022/04/28 11:04:56;;;;;;;;;9.00;9.00;;;;;35.41;15.16;102008.09;5056923;28;45485;-78
2022/04/28 11:07:25;;;;;;;;;8.00;8.00;;;;;35.54;15.36;102027.47;5054285;27;46347;-78
2022/04/28 11:09:55;;;;;;;;;10.33;10.33;;;;;35.57;15.07;102018.09;5056435;28;46637;-78
2022/04/28 11:12:32;;;;;;;;;9.67;9.67;;;;;35.57;15.36;102019.00;5062759;27;45486;-78
2022/04/28 11:15:06;;;;;;;;;11.00;10.67;;;;;35.57;15.09;102016.25;5062600;28;45529;-77
2022/04/28 11:17:33;;;;;;;;;10.33;9.67;;;;;35.51;15.29;102002.84;5059438;27;46232;-79
2022/04/28 11:20:01;;;;;;;;;10.33;9.33;;;;;35.63;15.29;102003.91;5059715;28;46100;-78
2022/04/28 11:22:28;;;;;;;;;10.00;9.00;;;;;35.66;15.10;102009.19;5055874;28;45570;-78
2022/04/28 11:24:56;;;;;;;;;9.33;9.33;;;;;35.84;14.78;102015.38;5064945;28;45434;-79
2022/04/28 11:27:24;;;;;;;;;10.00;10.00;;;;;35.90;15.31;102003.91;5062090;27;45638;-78
2022/04/28 11:29:55;;;;;;;;;8.00;8.00;;;;;36.02;14.45;102030.69;5063551;28;45472;-79
2022/04/28 11:32:21;;;;;;;;;7.67;7.67;;;;;35.60;14.35;101984.75;5055318;28;45705;-79
2022/04/28 11:34:48;;;;;;;;;7.00;6.67;;;;;35.93;14.40;102027.66;5055916;28;45861;-78
2022/04/28 11:37:15;;;;;;;;;8.00;8.00;;;;;35.91;14.34;102027.78;5058663;28;48006;-79
2022/04/28 11:39:43;;;;;;;;;10.67;9.00;;;;;36.03;14.91;102034.31;5057542;28;45767;-79
2022/04/28 11:42:09;;;;;;;;;9.00;8.33;;;;;35.98;14.46;102031.88;5051734;28;45584;-79